createdAt,value
2022-08-11T00:00:17.306Z,96.70
2022-08-11T00:02:52.973Z,96.90
2022-08-11T00:05:24.890Z,96.90
2022-08-11T00:07:58.545Z,96.80
2022-08-11T00:10:30.655Z,97.20
2022-08-11T00:13:07.530Z,97.10
2022-08-11T00:15:42.940Z,97.40
2022-08-11T00:18:15.704Z,97.60
2022-08-11T00:20:48.227Z,97.90
2022-08-11T00:23:20.707Z,97.40
2022-08-11T00:25:53.393Z,97.70
2022-08-11T00:28:33.921Z,97.70
2022-08-11T00:31:08.584Z,97.80
2022-08-11T00:33:45.188Z,98.10
2022-08-11T00:36:25.369Z,98.20
2022-08-11T00:39:05.288Z,98.50
2022-08-11T00:41:37.197Z,98.20
2022-08-11T00:44:27.550Z,98.70
2022-08-11T00:47:31.588Z,99.20
2022-08-11T00:50:09.298Z,99.30
2022-08-11T00:53:03.292Z,99.40
2022-08-11T00:56:12.373Z,99.80
2022-08-11T00:59:32.212Z,99.70
2022-08-11T01:02:30.675Z,99.90
2022-08-11T01:05:14.972Z,99.90
2022-08-11T01:08:05.503Z,99.90
2022-08-11T01:11:15.135Z,99.90
2022-08-11T01:14:34.246Z,99.90
2022-08-11T01:17:51.153Z,99.90
2022-08-11T01:20:45.045Z,99.90
2022-08-11T01:23:41.711Z,99.90
2022-08-11T01:26:43.912Z,99.90
2022-08-11T01:29:24.468Z,99.90
2022-08-11T01:32:29.694Z,99.90
2022-08-11T01:35:07.459Z,99.90
2022-08-11T01:38:06.841Z,99.90
2022-08-11T01:40:55.566Z,99.90
2022-08-11T01:44:22.484Z,99.90
2022-08-11T01:47:06.703Z,99.90
2022-08-11T01:50:08.646Z,99.90
2022-08-11T01:53:20.590Z,99.90
2022-08-11T01:56:27.277Z,99.90
2022-08-11T01:59:34.332Z,99.90
2022-08-11T02:02:06.026Z,99.90
2022-08-11T02:04:44.042Z,99.90
2022-08-11T02:07:47.096Z,99.90
2022-08-11T02:10:50.770Z,99.90
2022-08-11T02:13:53.883Z,99.90
2022-08-11T02:16:37.686Z,99.90
2022-08-11T02:19:56.609Z,99.90
2022-08-11T02:24:00.527Z,99.90
2022-08-11T02:26:33.167Z,99.90
2022-08-11T02:29:25.180Z,99.90
2022-08-11T02:32:30.727Z,99.90
2022-08-11T02:35:29.307Z,99.90
2022-08-11T02:38:25.400Z,99.90
2022-08-11T02:41:30.537Z,99.90
2022-08-11T02:44:25.975Z,99.90
2022-08-11T02:47:00.415Z,99.90
2022-08-11T02:49:59.750Z,99.90
2022-08-11T02:52:54.158Z,99.90
2022-08-11T02:56:10.878Z,99.90
2022-08-11T02:59:27.353Z,99.90
2022-08-11T03:02:10.039Z,99.90
2022-08-11T03:04:55.812Z,99.90
2022-08-11T03:07:52.783Z,99.90
2022-08-11T03:11:21.095Z,99.90
2022-08-11T03:14:26.329Z,99.90
2022-08-11T03:17:30.062Z,99.90
2022-08-11T03:20:13.759Z,99.90
2022-08-11T03:22:51.600Z,99.90
2022-08-11T03:25:44.991Z,99.90
2022-08-11T03:28:36.735Z,99.90
2022-08-11T03:31:20.055Z,99.90
2022-08-11T03:34:06.611Z,99.90
2022-08-11T03:37:16.806Z,99.90
2022-08-11T03:40:01.681Z,99.90
2022-08-11T03:42:57.850Z,99.90
2022-08-11T03:45:57.342Z,99.90
2022-08-11T03:49:05.711Z,99.90
2022-08-11T03:52:05.359Z,99.90
2022-08-11T03:55:07.467Z,99.90
2022-08-11T03:57:47.942Z,99.90
2022-08-11T04:00:39.934Z,99.90
2022-08-11T04:03:39.250Z,99.90
2022-08-11T04:06:38.866Z,99.90
2022-08-11T04:09:56.998Z,99.90
2022-08-11T04:12:39.468Z,99.90
2022-08-11T04:15:49.254Z,99.90
2022-08-11T04:18:39.268Z,99.90
2022-08-11T04:21:20.329Z,99.90
2022-08-11T04:24:39.079Z,99.90
2022-08-11T04:27:47.717Z,99.90
2022-08-11T04:30:54.108Z,99.90
2022-08-11T04:33:55.413Z,99.90
2022-08-11T04:37:06.425Z,99.90
2022-08-11T04:40:13.237Z,99.90
2022-08-11T04:43:22.071Z,99.90
2022-08-11T04:45:56.756Z,99.90
2022-08-11T04:49:33.709Z,99.90
2022-08-11T04:52:38.300Z,99.90
2022-08-11T04:56:00.423Z,99.90
2022-08-11T04:59:25.050Z,99.90
2022-08-11T05:02:30.331Z,99.90
2022-08-11T05:05:20.572Z,99.90
2022-08-11T05:08:24.184Z,99.90
2022-08-11T05:11:22.730Z,99.90
2022-08-11T05:14:31.432Z,99.90
2022-08-11T05:17:40.730Z,99.90
2022-08-11T05:20:31.762Z,99.90
2022-08-11T05:23:25.197Z,99.90
2022-08-11T05:26:46.877Z,99.90
2022-08-11T05:29:57.403Z,99.90
2022-08-11T05:33:14.458Z,99.90
2022-08-11T05:36:02.576Z,99.90
2022-08-11T05:38:55.584Z,99.90
2022-08-11T05:41:49.540Z,99.90
2022-08-11T05:44:40.482Z,99.90
2022-08-11T05:47:39.456Z,99.90
2022-08-11T05:50:33.123Z,99.90
2022-08-11T05:53:29.408Z,99.90
2022-08-11T05:56:21.177Z,99.90
2022-08-11T05:58:54.871Z,99.90
2022-08-11T06:01:33.071Z,99.90
2022-08-11T06:04:16.244Z,99.90
2022-08-11T06:06:57.155Z,99.90
2022-08-11T06:09:47.380Z,99.90
2022-08-11T06:12:24.729Z,99.90
2022-08-11T06:15:01.869Z,99.90
2022-08-11T06:17:38.523Z,99.90
2022-08-11T06:20:12.964Z,99.90
2022-08-11T06:22:52.818Z,99.90
2022-08-11T06:25:35.675Z,99.90
2022-08-11T06:28:08.396Z,99.90
2022-08-11T06:30:43.094Z,99.90
2022-08-11T06:33:48.182Z,99.90
2022-08-11T06:36:35.719Z,99.90
2022-08-11T06:39:27.497Z,99.90
2022-08-11T06:42:08.705Z,99.90
2022-08-11T06:44:50.227Z,99.90
2022-08-11T06:47:22.526Z,99.90
2022-08-11T06:50:17.918Z,99.90
2022-08-11T06:52:53.756Z,99.90
2022-08-11T06:55:55.501Z,99.90
2022-08-11T06:58:55.875Z,99.90
2022-08-11T07:02:03.043Z,99.90
2022-08-11T07:05:04.220Z,99.60
2022-08-11T07:08:38.799Z,99.30
2022-08-11T07:12:07.390Z,99.30
2022-08-11T07:15:05.087Z,99.80
2022-08-11T07:17:50.027Z,99.00
2022-08-11T07:20:40.349Z,99.00
2022-08-11T07:23:31.283Z,98.60
2022-08-11T07:26:23.247Z,97.70
2022-08-11T07:28:56.453Z,98.00
2022-08-11T07:31:37.284Z,98.50
2022-08-11T07:34:28.120Z,97.70
2022-08-11T07:37:08.672Z,97.40
2022-08-11T07:39:44.318Z,96.90
2022-08-11T07:42:27.143Z,96.70
2022-08-11T07:45:18.887Z,96.90
2022-08-11T07:48:11.388Z,96.40
2022-08-11T07:51:05.803Z,95.60
2022-08-11T07:53:57.880Z,95.40
2022-08-11T07:56:55.431Z,96.00
2022-08-11T08:00:00.950Z,95.40
2022-08-11T08:02:54.830Z,94.60
2022-08-11T08:05:45.539Z,94.10
2022-08-11T08:08:35.778Z,94.60
2022-08-11T08:11:27.474Z,93.40
2022-08-11T08:14:18.691Z,92.70
2022-08-11T08:17:09.639Z,91.90
2022-08-11T08:19:44.436Z,91.90
2022-08-11T08:22:38.671Z,91.40
2022-08-11T08:25:11.375Z,91.10
2022-08-11T08:27:45.664Z,91.20
2022-08-11T08:30:38.026Z,90.80
2022-08-11T08:33:12.045Z,91.00
2022-08-11T08:35:55.713Z,90.30
2022-08-11T08:38:27.803Z,90.30
2022-08-11T08:41:00.454Z,90.70
2022-08-11T08:43:47.587Z,89.90
2022-08-11T08:46:29.216Z,89.50
2022-08-11T08:49:03.155Z,88.70
2022-08-11T08:52:01.854Z,87.40
2022-08-11T08:54:37.105Z,86.50
2022-08-11T08:57:11.973Z,85.10
2022-08-11T08:59:49.505Z,84.90
2022-08-11T09:02:33.960Z,84.90
2022-08-11T09:05:09.927Z,83.60
2022-08-11T09:07:43.311Z,82.30
2022-08-11T09:10:18.883Z,81.20
2022-08-11T09:12:51.559Z,78.50
2022-08-11T09:15:24.326Z,76.40
2022-08-11T09:18:05.946Z,72.80
2022-08-11T09:20:39.552Z,71.00
2022-08-11T09:24:08.890Z,68.10
2022-08-11T09:26:41.158Z,66.70
2022-08-11T09:29:13.880Z,67.00
2022-08-11T09:31:46.591Z,65.00
2022-08-11T09:34:19.010Z,64.10
2022-08-11T09:37:09.882Z,60.70
2022-08-11T09:40:01.280Z,60.90
2022-08-11T09:42:52.161Z,59.50
2022-08-11T09:45:24.286Z,59.60
2022-08-11T09:47:57.104Z,59.00
2022-08-11T09:50:29.016Z,58.00
2022-08-11T09:53:36.328Z,58.90
2022-08-11T09:55:58.627Z,58.90
2022-08-11T09:58:41.743Z,57.20
2022-08-11T10:01:27.430Z,55.80
2022-08-11T10:04:05.704Z,54.70
2022-08-11T10:06:58.486Z,54.70
2022-08-11T10:09:36.239Z,56.20
2022-08-11T10:12:24.613Z,55.20
2022-08-11T10:15:22.042Z,56.00
2022-08-11T10:18:27.676Z,54.20
2022-08-11T10:21:02.775Z,54.50
2022-08-11T10:24:00.897Z,53.80
2022-08-11T10:27:00.316Z,53.30
2022-08-11T10:29:59.757Z,53.00
2022-08-11T10:32:58.550Z,52.50
2022-08-11T10:35:33.100Z,52.10
2022-08-11T10:38:07.949Z,50.80
2022-08-11T10:40:46.220Z,50.80
2022-08-11T10:44:02.107Z,51.90
2022-08-11T10:46:30.167Z,53.30
2022-08-11T10:49:02.753Z,52.60
2022-08-11T10:51:53.733Z,50.40
2022-08-11T10:54:44.937Z,51.10
2022-08-11T10:57:37.467Z,50.00
2022-08-11T11:00:15.147Z,49.10
2022-08-11T11:03:16.780Z,48.60
2022-08-11T11:06:27.694Z,49.40
2022-08-11T11:08:52.869Z,49.40
2022-08-11T11:11:46.173Z,49.50
2022-08-11T11:14:46.379Z,49.30
2022-08-11T11:17:57.186Z,49.60
2022-08-11T11:20:46.562Z,48.70
2022-08-11T11:23:26.519Z,49.10
2022-08-11T11:26:11.033Z,48.80
2022-08-11T11:28:51.860Z,49.10
2022-08-11T11:31:26.603Z,49.30
2022-08-11T11:34:13.197Z,49.80
2022-08-11T11:36:55.145Z,51.10
2022-08-11T11:39:31.110Z,52.30
2022-08-11T11:42:06.149Z,53.10
2022-08-11T11:44:39.302Z,53.50
2022-08-11T11:47:12.916Z,53.90
2022-08-11T11:49:45.664Z,54.10
2022-08-11T11:52:21.059Z,55.80
2022-08-11T11:54:56.468Z,56.20
2022-08-11T11:57:59.285Z,56.20
2022-08-11T12:00:53.655Z,56.20
2022-08-11T12:03:26.680Z,55.90
2022-08-11T12:06:00.086Z,56.50
2022-08-11T12:08:32.635Z,56.40
2022-08-11T12:11:27.317Z,55.60
2022-08-11T12:14:04.740Z,55.90
2022-08-11T12:16:45.716Z,56.30
2022-08-11T12:19:21.448Z,57.10
2022-08-11T12:22:14.674Z,56.10
2022-08-11T12:25:05.689Z,55.00
2022-08-11T12:27:39.148Z,55.70
2022-08-11T12:30:12.734Z,55.70
2022-08-11T12:32:45.027Z,55.50
2022-08-11T12:35:17.240Z,56.30
2022-08-11T12:38:02.578Z,54.40
2022-08-11T12:41:15.806Z,55.80
2022-08-11T12:44:08.122Z,55.00
2022-08-11T12:46:44.577Z,55.00
2022-08-11T12:49:44.871Z,55.50
2022-08-11T12:52:25.430Z,56.10
2022-08-11T12:55:14.100Z,55.90
2022-08-11T12:58:06.194Z,54.10
2022-08-11T13:00:56.576Z,54.50
2022-08-11T13:03:52.365Z,55.10
2022-08-11T13:06:29.544Z,55.30
2022-08-11T13:09:01.704Z,55.20
2022-08-11T13:11:56.601Z,55.90
2022-08-11T13:14:33.040Z,55.00
2022-08-11T13:17:43.638Z,55.20
2022-08-11T13:20:20.137Z,55.10
2022-08-11T13:22:54.567Z,55.60
2022-08-11T13:25:29.702Z,55.30
2022-08-11T13:28:04.870Z,55.30
2022-08-11T13:31:12.368Z,55.40
2022-08-11T13:33:51.672Z,54.70
2022-08-11T13:36:28.418Z,53.90
2022-08-11T13:39:02.431Z,53.90
2022-08-11T13:41:40.701Z,54.20
2022-08-11T13:44:18.190Z,54.30
2022-08-11T13:46:53.394Z,55.20
2022-08-11T13:49:25.988Z,55.20
2022-08-11T13:51:59.024Z,55.50
2022-08-11T13:54:34.940Z,55.90
2022-08-11T13:57:13.476Z,55.00
2022-08-11T14:00:22.540Z,55.10
2022-08-11T14:02:58.257Z,55.50
2022-08-11T14:05:37.980Z,56.10
2022-08-11T14:08:37.017Z,56.80
2022-08-11T14:12:23.501Z,56.70
2022-08-11T14:14:23.516Z,55.70
2022-08-11T14:16:57.524Z,55.30
2022-08-11T14:19:30.799Z,55.40
2022-08-11T14:22:08.125Z,55.00
2022-08-11T14:24:42.842Z,55.40
2022-08-11T14:28:31.934Z,56.10
2022-08-11T14:30:27.853Z,55.90
2022-08-11T14:33:00.006Z,55.10
2022-08-11T14:35:31.825Z,55.20
2022-08-11T14:38:05.397Z,55.20
2022-08-11T14:40:56.499Z,54.60
2022-08-11T14:44:13.339Z,55.20
2022-08-11T14:46:59.452Z,55.50
2022-08-11T14:49:36.170Z,55.10
2022-08-11T14:52:30.530Z,55.30
2022-08-11T14:55:21.760Z,55.90
2022-08-11T14:57:57.106Z,55.80
2022-08-11T15:00:30.086Z,55.40
2022-08-11T15:03:10.373Z,55.30
2022-08-11T15:06:02.689Z,55.00
2022-08-11T15:08:56.490Z,55.80
2022-08-11T15:11:50.667Z,56.00
2022-08-11T15:14:41.496Z,56.00
2022-08-11T15:17:14.398Z,55.70
2022-08-11T15:20:05.463Z,55.40
2022-08-11T15:23:09.741Z,56.10
2022-08-11T15:25:53.115Z,55.40
2022-08-11T15:28:45.796Z,54.70
2022-08-11T15:31:37.411Z,55.80
2022-08-11T15:34:31.930Z,55.10
2022-08-11T15:37:28.052Z,55.20
2022-08-11T15:40:32.981Z,55.60
2022-08-11T15:43:30.359Z,56.30
2022-08-11T15:46:30.330Z,55.30
2022-08-11T15:49:08.623Z,55.40
2022-08-11T15:51:46.191Z,55.50
2022-08-11T15:54:23.139Z,55.30
2022-08-11T15:56:57.451Z,55.60
2022-08-11T15:59:52.260Z,56.10
2022-08-11T16:02:45.302Z,56.70
2022-08-11T16:05:45.211Z,55.90
2022-08-11T16:08:10.483Z,56.20
2022-08-11T16:10:46.627Z,56.00
2022-08-11T16:13:22.515Z,56.60
2022-08-11T16:16:14.791Z,55.60
2022-08-11T16:18:53.906Z,56.10
2022-08-11T16:21:35.271Z,57.20
2022-08-11T16:26:30.410Z,56.10
2022-08-11T16:27:13.501Z,56.30
2022-08-11T16:29:47.872Z,56.30
2022-08-11T16:32:23.336Z,56.10
2022-08-11T16:35:22.371Z,56.30
2022-08-11T16:38:13.449Z,56.20
2022-08-11T16:40:47.350Z,56.60
2022-08-11T16:43:40.620Z,56.60
2022-08-11T16:46:34.719Z,56.80
2022-08-11T16:49:10.626Z,57.00
2022-08-11T16:51:42.575Z,56.50
2022-08-11T16:54:14.863Z,57.00
2022-08-11T16:56:57.272Z,57.80
2022-08-11T16:59:38.332Z,57.10
2022-08-11T17:02:34.928Z,57.20
2022-08-11T17:05:38.328Z,57.70
2022-08-11T17:08:57.098Z,57.20
2022-08-11T17:11:59.197Z,57.70
2022-08-11T17:14:40.456Z,57.30
2022-08-11T17:17:17.028Z,57.40
2022-08-11T17:20:40.392Z,57.70
2022-08-11T17:23:03.855Z,57.80
2022-08-11T17:25:59.665Z,57.70
2022-08-11T17:28:29.225Z,58.00
2022-08-11T17:31:22.308Z,58.40
2022-08-11T17:34:15.360Z,57.80
2022-08-11T17:36:49.060Z,58.00
2022-08-11T17:39:24.126Z,58.40
2022-08-11T17:42:14.791Z,58.90
2022-08-11T17:45:06.903Z,59.00
2022-08-11T17:47:58.785Z,59.50
2022-08-11T17:50:32.230Z,59.60
2022-08-11T17:53:23.614Z,59.50
2022-08-11T17:56:34.053Z,58.90
2022-08-11T17:59:32.403Z,59.70
2022-08-11T18:02:34.416Z,59.50
2022-08-11T18:05:12.784Z,59.50
2022-08-11T18:08:05.423Z,64.80
2022-08-11T18:10:57.343Z,70.00
2022-08-11T18:13:50.330Z,72.20
2022-08-11T18:16:41.580Z,71.70
2022-08-11T18:19:32.576Z,72.80
2022-08-11T18:22:31.592Z,73.30
2022-08-11T18:25:28.453Z,73.80
2022-08-11T18:28:19.773Z,74.20
2022-08-11T18:31:13.150Z,74.00
2022-08-11T18:34:11.778Z,73.70
2022-08-11T18:37:09.339Z,74.50
2022-08-11T18:40:17.277Z,74.60
2022-08-11T18:43:09.156Z,75.20
2022-08-11T18:46:07.196Z,75.80
2022-08-11T18:49:06.134Z,76.40
2022-08-11T18:51:58.684Z,76.50
2022-08-11T18:54:53.185Z,77.30
2022-08-11T18:57:50.093Z,77.30
2022-08-11T19:00:46.354Z,77.70
2022-08-11T19:03:48.507Z,78.30
2022-08-11T19:06:42.638Z,78.40
2022-08-11T19:09:36.834Z,78.90
2022-08-11T19:12:29.980Z,78.90
2022-08-11T19:15:23.610Z,79.20
2022-08-11T19:18:15.078Z,79.30
2022-08-11T19:21:06.528Z,79.30
2022-08-11T19:24:02.470Z,79.50
2022-08-11T19:26:53.712Z,80.00
2022-08-11T19:30:11.071Z,79.50
2022-08-11T19:32:58.488Z,79.90
2022-08-11T19:35:50.406Z,80.10
2022-08-11T19:38:40.875Z,80.20
2022-08-11T19:41:56.381Z,79.80
2022-08-11T19:44:44.067Z,79.80
2022-08-11T19:47:38.747Z,80.40
2022-08-11T19:50:31.311Z,80.50
2022-08-11T19:53:24.667Z,80.30
2022-08-11T19:56:15.634Z,80.30
2022-08-11T19:59:07.191Z,80.40
2022-08-11T20:02:12.821Z,80.70
2022-08-11T20:05:04.868Z,81.50
2022-08-11T20:07:55.755Z,81.30
2022-08-11T20:10:47.916Z,81.10
2022-08-11T20:13:42.670Z,81.10
2022-08-11T20:16:37.023Z,81.50
2022-08-11T20:19:54.962Z,81.50
2022-08-11T20:22:39.066Z,81.90
2022-08-11T20:25:31.192Z,81.60
2022-08-11T20:28:23.978Z,81.80
2022-08-11T20:31:14.947Z,81.90
2022-08-11T20:34:05.616Z,82.00
2022-08-11T20:36:57.829Z,82.10
2022-08-11T20:39:50.299Z,82.40
2022-08-11T20:42:42.023Z,82.30
2022-08-11T20:45:33.697Z,83.10
2022-08-11T20:48:26.191Z,83.30
2022-08-11T20:51:18.118Z,83.30
2022-08-11T20:54:09.813Z,83.60
2022-08-11T20:57:01.937Z,83.50
2022-08-11T20:59:56.859Z,84.40
2022-08-11T21:02:50.078Z,84.20
2022-08-11T21:06:10.532Z,84.00
2022-08-11T21:08:54.957Z,84.20
2022-08-11T21:11:46.518Z,84.00
2022-08-11T21:14:40.762Z,83.80
2022-08-11T21:18:00.667Z,84.20
2022-08-11T21:20:50.151Z,83.90
2022-08-11T21:23:42.450Z,83.80
2022-08-11T21:26:35.891Z,84.20
2022-08-11T21:29:28.852Z,84.20
2022-08-11T21:32:20.444Z,84.40
2022-08-11T21:35:12.510Z,84.70
2022-08-11T21:38:07.132Z,85.00
2022-08-11T21:41:00.816Z,85.00
2022-08-11T21:43:51.699Z,85.10
2022-08-11T21:46:43.234Z,85.70
2022-08-11T21:49:34.715Z,86.10
2022-08-11T21:52:25.189Z,86.30
2022-08-11T21:55:16.638Z,86.20
2022-08-11T21:58:07.688Z,85.80
2022-08-11T22:00:58.589Z,86.80
2022-08-11T22:03:49.835Z,86.80
2022-08-11T22:06:41.454Z,87.00
2022-08-11T22:09:31.926Z,87.20
2022-08-11T22:12:41.266Z,87.40
2022-08-11T22:15:33.651Z,87.20
2022-08-11T22:18:24.013Z,86.80
2022-08-11T22:21:56.229Z,86.10
2022-08-11T22:24:26.035Z,87.10
2022-08-11T22:27:20.732Z,86.50
2022-08-11T22:30:11.223Z,87.50
2022-08-11T22:33:02.687Z,87.20
2022-08-11T22:35:54.058Z,88.10
2022-08-11T22:38:45.080Z,88.30
2022-08-11T22:41:35.797Z,88.60
2022-08-11T22:44:27.180Z,88.70
2022-08-11T22:47:19.326Z,89.60
2022-08-11T22:50:14.359Z,89.30
2022-08-11T22:53:06.784Z,89.30
2022-08-11T22:55:59.553Z,89.40
2022-08-11T22:58:50.553Z,90.00
2022-08-11T23:01:54.770Z,89.80
2022-08-11T23:04:53.017Z,89.60
2022-08-11T23:07:50.893Z,89.20
2022-08-11T23:10:43.250Z,89.70
2022-08-11T23:13:34.295Z,89.30
2022-08-11T23:16:25.471Z,89.40
2022-08-11T23:20:06.600Z,89.80
2022-08-11T23:22:37.064Z,89.80
2022-08-11T23:25:38.233Z,90.10
2022-08-11T23:28:31.817Z,90.20
2022-08-11T23:31:22.788Z,90.30
2022-08-11T23:35:02.844Z,90.30
2022-08-11T23:37:26.227Z,90.60
2022-08-11T23:40:16.614Z,90.50
2022-08-11T23:43:10.502Z,90.70
2022-08-11T23:46:00.907Z,90.70
2022-08-11T23:48:52.345Z,90.70
2022-08-11T23:51:43.886Z,90.80
2022-08-11T23:54:37.391Z,91.10
2022-08-11T23:57:28.308Z,91.10
